Time;durP1;ratioP1;P1;durP2;ratioP2;P2;SDS_P1;SDS_P2;PMS_P1;PMS_P2;Temp;Humidity;BMP_temperature;BMP_pressure;BME280_temperature;BME280_humidity;BME280_pressure;Samples;Min_cycle;Max_cycle;Signal;HPM_P1;HPM_P2
2023/10/10 00:00:23;;;;;;;25.45;15.00;;;;;;;;;;1041303;28;21508;-70
2023/10/10 00:01:17;;;;;;;25.33;15.43;;;;;;;;;;1043232;27;20052;-70
2023/10/10 00:01:48;;;;;;;31.00;15.35;;;;;;;;;;1041792;28;20052;-70
2023/10/10 00:02:18;;;;;;;27.65;15.27;;;;;;;;;;1042130;27;20056;-70
2023/10/10 00:02:51;;;;;;;29.25;15.70;;;;;;;;;;1044018;28;20117;-71
2023/10/10 00:03:22;;;;;;;28.73;16.58;;;;;;;;;;1045194;28;20451;-69
2023/10/10 00:03:53;;;;;;;25.85;15.05;;;;;;;;;;1044883;28;20070;-71
2023/10/10 00:04:25;;;;;;;25.20;15.57;;;;;;;;;;1041110;28;20045;-71
2023/10/10 00:04:55;;;;;;;26.17;16.33;;;;;;;;;;1039125;28;20509;-70
2023/10/10 00:05:35;;;;;;;25.75;15.02;;;;;;;;;;1038850;28;20764;-71
2023/10/10 00:06:08;;;;;;;27.58;14.38;;;;;;;;;;1041611;28;20516;-70
2023/10/10 00:06:42;;;;;;;23.58;14.82;;;;;;;;;;1041634;28;20620;-69
2023/10/10 00:07:14;;;;;;;26.85;14.27;;;;;;;;;;1038152;28;20678;-71
2023/10/10 00:07:46;;;;;;;26.73;14.85;;;;;;;;;;1040686;28;20069;-71
2023/10/10 00:08:20;;;;;;;24.38;15.02;;;;;;;;;;1040402;28;20124;-72
2023/10/10 00:08:50;;;;;;;24.40;14.75;;;;;;;;;;1040707;28;20056;-69
2023/10/10 00:09:23;;;;;;;25.80;15.00;;;;;;;;;;1040466;28;20049;-70
2023/10/10 00:09:56;;;;;;;26.58;15.40;;;;;;;;;;1039107;28;20151;-71
2023/10/10 00:10:31;;;;;;;26.75;14.93;;;;;;;;;;1040689;28;20049;-72
2023/10/10 00:11:10;;;;;;;23.73;14.68;;;;;;;;;;1039613;28;20045;-70
2023/10/10 00:11:43;;;;;;;25.38;14.35;;;;;;;;;;1040847;28;20081;-72
2023/10/10 00:12:18;;;;;;;22.92;14.02;;;;;;;;;;1040285;28;20459;-71
2023/10/10 00:12:49;;;;;;;30.02;15.10;;;;;;;;;;1041156;28;20049;-70
2023/10/10 00:13:20;;;;;;;27.92;15.75;;;;;;;;;;1040443;28;20049;-70
2023/10/10 00:13:58;;;;;;;26.27;15.15;;;;;;;;;;1040616;28;20413;-71
2023/10/10 00:14:29;;;;;;;23.65;15.10;;;;;;;;;;1039533;28;20073;-70
2023/10/10 00:15:02;;;;;;;24.63;15.15;;;;;;;;;;1041495;28;20060;-70
2023/10/10 00:15:34;;;;;;;27.38;17.00;;;;;;;;;;1042673;28;20615;-70
2023/10/10 00:16:05;;;;;;;24.05;15.23;;;;;;;;;;1044363;28;20114;-72
2023/10/10 00:16:36;;;;;;;29.80;14.98;;;;;;;;;;1045879;28;20220;-70
2023/10/10 00:17:08;;;;;;;25.88;16.38;;;;;;;;;;1044437;28;20210;-71
2023/10/10 00:17:41;;;;;;;28.27;16.15;;;;;;;;;;1042293;28;20109;-72
2023/10/10 00:18:11;;;;;;;24.75;15.70;;;;;;;;;;1041412;28;20516;-71
2023/10/10 00:18:45;;;;;;;25.90;14.80;;;;;;;;;;1045893;28;20104;-70
2023/10/10 00:19:28;;;;;;;28.98;16.20;;;;;;;;;;1044490;28;20056;-72
2023/10/10 00:20:16;;;;;;;29.85;16.33;;;;;;;;;;1043639;28;20049;-71
2023/10/10 00:21:05;;;;;;;25.35;14.68;;;;;;;;;;1046425;28;20045;-70
2023/10/10 00:21:35;;;;;;;25.27;15.52;;;;;;;;;;1041417;28;20682;-72
2023/10/10 00:22:07;;;;;;;24.98;15.00;;;;;;;;;;1041896;28;20049;-72
2023/10/10 00:22:39;;;;;;;24.00;15.10;;;;;;;;;;1041270;28;20053;-72
2023/10/10 00:23:16;;;;;;;24.17;15.95;;;;;;;;;;1041005;28;20060;-71
2023/10/10 00:23:55;;;;;;;26.33;16.00;;;;;;;;;;1045596;28;20076;-70
2023/10/10 00:24:30;;;;;;;23.75;14.82;;;;;;;;;;1045209;28;20136;-70
2023/10/10 00:25:04;;;;;;;25.48;15.52;;;;;;;;;;1044057;28;20159;-71
2023/10/10 00:25:37;;;;;;;26.20;15.07;;;;;;;;;;1044982;28;20151;-70
2023/10/10 00:26:12;;;;;;;23.80;14.38;;;;;;;;;;1045651;28;20051;-71
2023/10/10 00:26:42;;;;;;;23.52;15.10;;;;;;;;;;1046267;28;20093;-72
2023/10/10 00:27:14;;;;;;;25.88;14.20;;;;;;;;;;1045520;28;20102;-71
2023/10/10 00:27:46;;;;;;;28.83;15.52;;;;;;;;;;1044766;28;20485;-70
2023/10/10 00:28:18;;;;;;;24.02;15.55;;;;;;;;;;1043907;28;20142;-71
2023/10/10 00:28:55;;;;;;;28.08;15.23;;;;;;;;;;1044774;28;20044;-69
2023/10/10 00:29:26;;;;;;;24.40;14.63;;;;;;;;;;1044745;28;20051;-69
2023/10/10 00:30:03;;;;;;;25.65;15.15;;;;;;;;;;1045224;28;20097;-71
2023/10/10 00:30:42;;;;;;;26.05;14.88;;;;;;;;;;1043551;28;20064;-71
2023/10/10 00:31:17;;;;;;;24.88;15.90;;;;;;;;;;1043646;28;20044;-71
2023/10/10 00:31:55;;;;;;;30.58;14.63;;;;;;;;;;1045119;28;20486;-70
2023/10/10 00:32:28;;;;;;;26.90;15.25;;;;;;;;;;1045116;28;20121;-71
2023/10/10 00:33:03;;;;;;;22.13;15.52;;;;;;;;;;1044661;28;20063;-71
2023/10/10 00:33:34;;;;;;;26.45;17.05;;;;;;;;;;1044307;28;20056;-70
2023/10/10 00:34:07;;;;;;;24.20;15.35;;;;;;;;;;1045196;28;20068;-70
2023/10/10 00:34:38;;;;;;;22.88;15.35;;;;;;;;;;1045750;28;20036;-71
2023/10/10 00:35:12;;;;;;;22.85;15.10;;;;;;;;;;1045676;28;20057;-71
2023/10/10 00:35:44;;;;;;;27.45;15.27;;;;;;;;;;1043347;28;20048;-70
2023/10/10 00:36:21;;;;;;;25.20;15.57;;;;;;;;;;1043645;28;20044;-71
2023/10/10 00:36:51;;;;;;;25.92;15.27;;;;;;;;;;1045485;28;20053;-71
2023/10/10 00:37:29;;;;;;;22.40;14.90;;;;;;;;;;1045088;28;20048;-70
2023/10/10 00:38:02;;;;;;;26.77;15.23;;;;;;;;;;1045820;28;20820;-71
2023/10/10 00:38:33;;;;;;;23.83;15.45;;;;;;;;;;1042803;28;20052;-69
2023/10/10 00:39:21;;;;;;;24.90;15.32;;;;;;;;;;1046363;28;20052;-71
2023/10/10 00:39:52;;;;;;;24.00;14.85;;;;;;;;;;1046070;28;20075;-70
2023/10/10 00:40:29;;;;;;;21.98;13.85;;;;;;;;;;1045986;28;20436;-70
2023/10/10 00:41:05;;;;;;;23.17;15.30;;;;;;;;;;1044688;28;20151;-71
2023/10/10 00:42:03;;;;;;;22.42;14.52;;;;;;;;;;1045257;28;20056;-70
2023/10/10 00:42:40;;;;;;;22.65;14.52;;;;;;;;;;1045864;28;20070;-72
2023/10/10 00:43:13;;;;;;;22.85;14.00;;;;;;;;;;1043311;28;20053;-70
2023/10/10 00:43:44;;;;;;;24.92;14.73;;;;;;;;;;1046207;28;20585;-71
2023/10/10 00:44:16;;;;;;;24.25;14.13;;;;;;;;;;1042452;28;20056;-70
2023/10/10 00:44:48;;;;;;;23.33;15.15;;;;;;;;;;1043945;28;20094;-71
2023/10/10 00:45:21;;;;;;;25.20;15.27;;;;;;;;;;1043723;28;20058;-71
2023/10/10 00:45:57;;;;;;;23.55;14.25;;;;;;;;;;1043636;28;20063;-71
2023/10/10 00:46:28;;;;;;;25.40;13.88;;;;;;;;;;1044837;28;20123;-71
2023/10/10 00:47:03;;;;;;;23.52;14.70;;;;;;;;;;1045719;28;20151;-71
2023/10/10 00:47:38;;;;;;;23.92;14.98;;;;;;;;;;1045527;28;20055;-71
2023/10/10 00:48:09;;;;;;;22.65;14.98;;;;;;;;;;1043663;28;20063;-69
2023/10/10 00:48:40;;;;;;;24.45;15.27;;;;;;;;;;1043868;28;20122;-71
2023/10/10 00:49:16;;;;;;;25.23;14.80;;;;;;;;;;1043830;28;20086;-70
2023/10/10 00:49:47;;;;;;;22.35;14.02;;;;;;;;;;1045976;28;20150;-72
2023/10/10 00:50:20;;;;;;;24.38;14.90;;;;;;;;;;1046214;28;20170;-72
2023/10/10 00:51:05;;;;;;;23.63;14.57;;;;;;;;;;1044785;28;20501;-71
2023/10/10 00:51:39;;;;;;;28.65;14.73;;;;;;;;;;1045791;28;20056;-70
2023/10/10 00:52:12;;;;;;;22.70;14.18;;;;;;;;;;1044226;28;20432;-70
2023/10/10 00:52:45;;;;;;;22.90;14.90;;;;;;;;;;1046632;28;20102;-73
2023/10/10 00:53:15;;;;;;;25.08;15.02;;;;;;;;;;1044177;28;20189;-70
2023/10/10 00:53:55;;;;;;;28.20;14.77;;;;;;;;;;1044682;28;20227;-71
2023/10/10 00:54:31;;;;;;;24.27;15.43;;;;;;;;;;1044674;28;20471;-71
2023/10/10 00:55:04;;;;;;;25.02;16.02;;;;;;;;;;1043841;28;20045;-71
2023/10/10 00:55:36;;;;;;;24.95;14.77;;;;;;;;;;1045934;28;20489;-72
2023/10/10 00:56:07;;;;;;;26.65;15.50;;;;;;;;;;1043976;28;20056;-70
2023/10/10 00:56:43;;;;;;;21.40;14.85;;;;;;;;;;1046647;28;20245;-72
2023/10/10 00:57:16;;;;;;;24.05;14.57;;;;;;;;;;1044269;28;20094;-70
2023/10/10 00:57:46;;;;;;;25.05;15.43;;;;;;;;;;1045813;28;20048;-71
2023/10/10 00:58:22;;;;;;;27.35;14.23;;;;;;;;;;1044938;28;20055;-70
2023/10/10 00:58:53;;;;;;;24.67;13.60;;;;;;;;;;1044926;28;20051;-70
2023/10/10 00:59:44;;;;;;;25.48;15.15;;;;;;;;;;1045683;28;20087;-72
2023/10/10 01:00:15;;;;;;;24.45;14.25;;;;;;;;;;1042991;28;20126;-71
2023/10/10 01:00:46;;;;;;;26.10;15.02;;;;;;;;;;1045523;28;20082;-70
2023/10/10 01:01:19;;;;;;;25.10;14.85;;;;;;;;;;1044961;28;20040;-71
2023/10/10 01:01:50;;;;;;;24.35;14.80;;;;;;;;;;1044718;28;20044;-71
2023/10/10 01:02:20;;;;;;;25.92;14.98;;;;;;;;;;1044869;28;21390;-70
2023/10/10 01:03:06;;;;;;;22.25;14.40;;;;;;;;;;1045602;28;20086;-71
2023/10/10 01:03:40;;;;;;;28.92;15.05;;;;;;;;;;1044820;28;20098;-71
2023/10/10 01:04:11;;;;;;;24.77;14.85;;;;;;;;;;1043605;28;20063;-71
2023/10/10 01:04:55;;;;;;;25.33;15.55;;;;;;;;;;1046074;28;20048;-71
2023/10/10 01:05:39;;;;;;;22.52;14.18;;;;;;;;;;1044356;28;20056;-71
2023/10/10 01:06:24;;;;;;;25.95;15.63;;;;;;;;;;1043283;28;20149;-71
2023/10/10 01:06:55;;;;;;;24.15;15.23;;;;;;;;;;1046769;28;20093;-70
2023/10/10 01:07:26;;;;;;;23.30;14.27;;;;;;;;;;1044464;28;20151;-70
2023/10/10 01:07:59;;;;;;;30.30;15.00;;;;;;;;;;1046507;28;20082;-70
2023/10/10 01:08:49;;;;;;;24.52;14.95;;;;;;;;;;1044512;28;20053;-70
2023/10/10 01:09:32;;;;;;;24.55;15.02;;;;;;;;;;1041290;28;20060;-70
2023/10/10 01:10:11;;;;;;;28.80;14.73;;;;;;;;;;1040209;28;20588;-71
2023/10/10 01:10:48;;;;;;;23.15;14.38;;;;;;;;;;1040660;28;20048;-72
2023/10/10 01:11:19;;;;;;;27.60;15.88;;;;;;;;;;1043212;28;20048;-70
2023/10/10 01:11:50;;;;;;;26.85;15.35;;;;;;;;;;1044752;28;20762;-72
2023/10/10 01:12:22;;;;;;;23.75;15.95;;;;;;;;;;1045900;28;20675;-71
2023/10/10 01:12:53;;;;;;;22.85;14.80;;;;;;;;;;1044880;28;20433;-70
2023/10/10 01:13:24;;;;;;;21.98;14.90;;;;;;;;;;1045815;28;20436;-71
2023/10/10 01:13:56;;;;;;;23.90;14.57;;;;;;;;;;1044446;28;20037;-71
2023/10/10 01:14:27;;;;;;;24.85;15.18;;;;;;;;;;1044684;28;20045;-71
2023/10/10 01:14:57;;;;;;;25.65;15.20;;;;;;;;;;1044682;28;20045;-70
2023/10/10 01:15:34;;;;;;;25.95;15.57;;;;;;;;;;1043234;28;20052;-70
2023/10/10 01:16:05;;;;;;;24.73;15.38;;;;;;;;;;1045754;28;20550;-72
2023/10/10 01:16:39;;;;;;;28.38;17.10;;;;;;;;;;1044800;28;20470;-70
2023/10/10 01:17:12;;;;;;;27.35;15.32;;;;;;;;;;1044226;28;20044;-71
2023/10/10 01:17:43;;;;;;;25.88;15.60;;;;;;;;;;1045484;28;20052;-72
2023/10/10 01:18:15;;;;;;;26.50;16.77;;;;;;;;;;1044757;28;20052;-71
2023/10/10 01:18:51;;;;;;;27.52;17.25;;;;;;;;;;1044459;28;20045;-69
2023/10/10 01:19:22;;;;;;;28.27;16.25;;;;;;;;;;1043802;28;20062;-70
2023/10/10 01:19:53;;;;;;;26.23;16.33;;;;;;;;;;1046873;28;20048;-71
2023/10/10 01:20:44;;;;;;;22.90;15.77;;;;;;;;;;1044466;28;20189;-70
2023/10/10 01:21:19;;;;;;;24.58;14.80;;;;;;;;;;1045949;28;20408;-70
2023/10/10 01:21:50;;;;;;;23.50;14.43;;;;;;;;;;1044585;28;20048;-70
2023/10/10 01:22:37;;;;;;;23.52;14.43;;;;;;;;;;1045295;28;20049;-70
2023/10/10 01:23:07;;;;;;;23.42;13.63;;;;;;;;;;1043846;28;20045;-72
2023/10/10 01:23:38;;;;;;;20.77;13.77;;;;;;;;;;1044139;28;20072;-70
2023/10/10 01:24:12;;;;;;;23.10;13.45;;;;;;;;;;1044932;28;20139;-71
2023/10/10 01:24:42;;;;;;;21.98;13.30;;;;;;;;;;1044703;28;20056;-70
2023/10/10 01:26:06;;;;;;;22.35;13.60;;;;;;;;;;1044128;28;20489;-72
2023/10/10 01:26:44;;;;;;;23.17;14.95;;;;;;;;;;1046925;28;20044;-70
2023/10/10 01:27:21;;;;;;;27.40;14.98;;;;;;;;;;1043771;28;20057;-71
2023/10/10 01:27:54;;;;;;;27.92;15.43;;;;;;;;;;1044327;28;20052;-73
2023/10/10 01:28:33;;;;;;;25.80;14.40;;;;;;;;;;1045176;28;20067;-71
2023/10/10 01:29:40;;;;;;;23.90;14.13;;;;;;;;;;1044715;28;20044;-70
2023/10/10 01:30:18;;;;;;;30.08;15.57;;;;;;;;;;1041692;28;20144;-69
2023/10/10 01:31:24;;;;;;;24.35;14.38;;;;;;;;;;1043848;28;20052;-71
2023/10/10 01:31:58;;;;;;;27.52;16.15;;;;;;;;;;1045195;28;20524;-70
2023/10/10 01:32:29;;;;;;;24.27;14.70;;;;;;;;;;1044976;28;20072;-71
2023/10/10 01:33:01;;;;;;;29.27;16.83;;;;;;;;;;1044794;28;20037;-70
2023/10/10 01:34:09;;;;;;;27.08;15.40;;;;;;;;;;1044955;28;20153;-70
2023/10/10 01:34:43;;;;;;;25.27;16.08;;;;;;;;;;1045677;28;20044;-73
2023/10/10 01:35:16;;;;;;;24.00;14.55;;;;;;;;;;1044365;28;20045;-71
2023/10/10 01:35:49;;;;;;;30.33;15.88;;;;;;;;;;1042406;28;20412;-70
2023/10/10 01:36:22;;;;;;;25.38;15.95;;;;;;;;;;1044439;28;20068;-71
2023/10/10 01:36:52;;;;;;;26.13;15.65;;;;;;;;;;1044676;28;20048;-72
2023/10/10 01:37:27;;;;;;;29.88;16.17;;;;;;;;;;1044249;28;20049;-72
2023/10/10 01:37:57;;;;;;;25.60;15.95;;;;;;;;;;1043077;28;20498;-70
2023/10/10 01:38:55;;;;;;;30.75;16.95;;;;;;;;;;1044719;28;20505;-69
2023/10/10 01:39:36;;;;;;;25.33;15.50;;;;;;;;;;1044617;28;20044;-71
2023/10/10 01:40:16;;;;;;;;;;;;;;;;;;1045006;28;20068;-70
2023/10/10 01:40:47;;;;;;;25.45;15.43;;;;;;;;;;1045655;28;20482;-72
2023/10/10 01:42:11;;;;;;;26.60;15.52;;;;;;;;;;1042680;28;20050;-72
2023/10/10 01:42:51;;;;;;;26.92;15.75;;;;;;;;;;1046185;28;20081;-71
2023/10/10 01:43:22;;;;;;;;;;;;;;;;;;1044825;28;20052;-71
2023/10/10 01:43:53;;;;;;;24.42;15.63;;;;;;;;;;1044581;28;19928;-72
2023/10/10 01:44:24;;;;;;;28.65;16.33;;;;;;;;;;1044871;28;20044;-72
2023/10/10 01:44:54;;;;;;;28.95;17.92;;;;;;;;;;1046557;28;20048;-72
2023/10/10 01:45:27;;;;;;;28.27;15.60;;;;;;;;;;1039664;28;20136;-71
2023/10/10 01:46:16;;;;;;;27.35;16.13;;;;;;;;;;1040558;28;20056;-71
2023/10/10 01:46:46;;;;;;;24.50;15.93;;;;;;;;;;1041929;28;20107;-71
2023/10/10 01:47:26;;;;;;;21.20;14.15;;;;;;;;;;1040872;28;20087;-72
2023/10/10 01:47:57;;;;;;;25.52;15.05;;;;;;;;;;1040940;28;20163;-71
2023/10/10 01:48:30;;;;;;;22.40;14.32;;;;;;;;;;1044184;28;20059;-72
2023/10/10 01:49:02;;;;;;;23.10;14.35;;;;;;;;;;1044709;28;20079;-71
2023/10/10 01:49:34;;;;;;;23.95;15.65;;;;;;;;;;1041595;28;20122;-72
2023/10/10 01:50:12;;;;;;;22.48;14.88;;;;;;;;;;1040678;28;20135;-70
2023/10/10 01:50:43;;;;;;;26.08;15.48;;;;;;;;;;1044242;28;20063;-71
2023/10/10 01:51:15;;;;;;;23.92;15.30;;;;;;;;;;1042141;28;20052;-71
2023/10/10 01:51:46;;;;;;;25.33;16.30;;;;;;;;;;1041606;28;20120;-71
2023/10/10 01:52:17;;;;;;;26.40;15.80;;;;;;;;;;1040059;28;20049;-71
2023/10/10 01:52:49;;;;;;;26.45;16.88;;;;;;;;;;1037933;28;20605;-71
2023/10/10 01:53:20;;;;;;;26.02;16.88;;;;;;;;;;1046064;28;20165;-72
2023/10/10 01:53:55;;;;;;;27.80;17.60;;;;;;;;;;1047804;28;20067;-71
2023/10/10 01:54:39;;;;;;;29.80;18.05;;;;;;;;;;1048999;28;20487;-70
2023/10/10 01:55:10;;;;;;;26.42;16.70;;;;;;;;;;1041434;28;20147;-70
2023/10/10 01:55:41;;;;;;;23.92;15.65;;;;;;;;;;1041212;28;20556;-70
2023/10/10 01:56:12;;;;;;;25.63;16.60;;;;;;;;;;1040096;28;20541;-70
2023/10/10 01:56:42;;;;;;;26.85;16.13;;;;;;;;;;1042285;28;20054;-71
2023/10/10 01:57:21;;;;;;;26.77;16.13;;;;;;;;;;1039654;28;20458;-70
2023/10/10 01:57:57;;;;;;;28.38;16.83;;;;;;;;;;1041092;28;20420;-70
2023/10/10 01:58:28;;;;;;;27.25;15.15;;;;;;;;;;1040392;28;20041;-71
2023/10/10 01:59:02;;;;;;;25.25;16.00;;;;;;;;;;1040527;28;20053;-70
2023/10/10 01:59:38;;;;;;;22.50;15.82;;;;;;;;;;1041198;28;20049;-70
2023/10/10 02:00:27;;;;;;;26.95;15.05;;;;;;;;;;1040982;28;20900;-70
2023/10/10 02:00:58;;;;;;;25.10;15.20;;;;;;;;;;1040478;28;20060;-70
2023/10/10 02:01:29;;;;;;;23.60;14.93;;;;;;;;;;1045693;28;20068;-71
2023/10/10 02:01:59;;;;;;;25.27;16.27;;;;;;;;;;1044940;28;20052;-72
2023/10/10 02:02:30;;;;;;;23.90;15.02;;;;;;;;;;1045967;28;20048;-71
2023/10/10 02:03:01;;;;;;;25.27;15.82;;;;;;;;;;1045069;28;20079;-71
2023/10/10 02:03:32;;;;;;;26.65;15.82;;;;;;;;;;1040979;28;20049;-70
2023/10/10 02:04:06;;;;;;;23.30;15.30;;;;;;;;;;1040328;28;20065;-70
2023/10/10 02:04:39;;;;;;;25.77;16.05;;;;;;;;;;1040448;28;20132;-71
2023/10/10 02:05:11;;;;;;;22.35;14.80;;;;;;;;;;1040581;28;20059;-71
2023/10/10 02:05:45;;;;;;;26.98;15.95;;;;;;;;;;1042546;28;20222;-71
2023/10/10 02:06:27;;;;;;;29.10;16.17;;;;;;;;;;1039556;28;20742;-71
2023/10/10 02:07:04;;;;;;;21.73;14.95;;;;;;;;;;1039410;28;20049;-70
2023/10/10 02:07:35;;;;;;;24.50;15.55;;;;;;;;;;1040996;28;20060;-70
2023/10/10 02:08:16;;;;;;;23.17;16.38;;;;;;;;;;1040836;28;20053;-70
2023/10/10 02:08:46;;;;;;;24.77;16.20;;;;;;;;;;1041295;28;20053;-70
2023/10/10 02:10:12;;;;;;;24.45;15.45;;;;;;;;;;1044928;28;20041;-71
2023/10/10 02:10:46;;;;;;;24.65;14.25;;;;;;;;;;1045640;28;20442;-71
2023/10/10 02:11:20;;;;;;;25.48;15.55;;;;;;;;;;1044466;28;20059;-71
2023/10/10 02:11:54;;;;;;;26.30;15.52;;;;;;;;;;1045812;28;20049;-70
2023/10/10 02:12:26;;;;;;;24.48;15.02;;;;;;;;;;1043548;28;20049;-71
2023/10/10 02:13:00;;;;;;;25.58;14.75;;;;;;;;;;1046936;28;20497;-70
2023/10/10 02:13:33;;;;;;;21.15;15.18;;;;;;;;;;1044526;27;20140;-71
2023/10/10 02:14:11;;;;;;;24.85;15.07;;;;;;;;;;1044252;28;20072;-71
2023/10/10 02:14:43;;;;;;;23.25;14.80;;;;;;;;;;1044871;28;20538;-70
2023/10/10 02:15:18;;;;;;;23.33;14.75;;;;;;;;;;1043121;28;20044;-71
2023/10/10 02:15:49;;;;;;;25.88;15.20;;;;;;;;;;1041598;28;20041;-72
2023/10/10 02:16:24;;;;;;;21.88;13.95;;;;;;;;;;1042816;28;20037;-70
2023/10/10 02:16:55;;;;;;;23.27;14.32;;;;;;;;;;1046033;28;20048;-69
2023/10/10 02:17:27;;;;;;;26.13;15.52;;;;;;;;;;1044720;28;20056;-71
2023/10/10 02:18:04;;;;;;;25.10;15.63;;;;;;;;;;1044850;28;20681;-69
2023/10/10 02:18:39;;;;;;;25.48;15.75;;;;;;;;;;1046071;28;20048;-71
2023/10/10 02:19:15;;;;;;;23.77;15.10;;;;;;;;;;1043740;28;20165;-70
2023/10/10 02:19:53;;;;;;;23.75;14.80;;;;;;;;;;1045318;28;20052;-70
2023/10/10 02:21:05;;;;;;;27.23;15.93;;;;;;;;;;1046124;28;20040;-71
2023/10/10 02:21:48;;;;;;;24.75;15.32;;;;;;;;;;1045885;28;20063;-71
2023/10/10 02:22:23;;;;;;;23.38;14.95;;;;;;;;;;1044605;28;20444;-71
2023/10/10 02:22:54;;;;;;;24.50;14.65;;;;;;;;;;1045278;28;20115;-71
2023/10/10 02:23:31;;;;;;;25.08;15.10;;;;;;;;;;1045062;28;20052;-71
2023/10/10 02:25:37;;;;;;;18.67;13.00;;;;;;;;;;1039858;28;20185;-71
2023/10/10 02:26:23;;;;;;;24.38;15.07;;;;;;;;;;1040393;28;20049;-70
2023/10/10 02:26:54;;;;;;;23.83;13.68;;;;;;;;;;1041028;28;20925;-71
2023/10/10 02:27:32;;;;;;;22.90;13.95;;;;;;;;;;1040462;28;20128;-72
2023/10/10 02:28:19;;;;;;;24.55;13.93;;;;;;;;;;1038790;28;20060;-71
2023/10/10 02:29:05;;;;;;;22.75;13.88;;;;;;;;;;1040242;28;20259;-73
2023/10/10 02:29:36;;;;;;;25.27;14.00;;;;;;;;;;1041200;28;20056;-69
2023/10/10 02:30:09;;;;;;;25.50;15.38;;;;;;;;;;1039655;28;20040;-71
2023/10/10 02:30:45;;;;;;;22.50;13.50;;;;;;;;;;1040677;28;20081;-71
2023/10/10 02:31:18;;;;;;;23.73;15.07;;;;;;;;;;1044782;28;20044;-72
2023/10/10 02:32:06;;;;;;;23.10;14.93;;;;;;;;;;1044796;28;20489;-72
2023/10/10 02:32:36;;;;;;;22.55;14.02;;;;;;;;;;1040233;28;20531;-70
2023/10/10 02:33:30;;;;;;;24.48;15.10;;;;;;;;;;1039828;28;20580;-71
2023/10/10 02:34:03;;;;;;;22.85;13.35;;;;;;;;;;1044630;28;20044;-70
2023/10/10 02:34:37;;;;;;;26.63;14.63;;;;;;;;;;1045490;28;20045;-72
2023/10/10 02:35:26;;;;;;;23.88;14.30;;;;;;;;;;1044391;28;20044;-71
2023/10/10 02:35:57;;;;;;;24.95;13.88;;;;;;;;;;1045154;28;20052;-71
2023/10/10 02:36:31;;;;;;;23.80;14.68;;;;;;;;;;1045503;28;20068;-71
2023/10/10 02:37:54;;;;;;;23.48;14.10;;;;;;;;;;1045099;28;20102;-71
2023/10/10 02:38:34;;;;;;;25.65;14.80;;;;;;;;;;1045017;28;20052;-72
2023/10/10 02:40:13;;;;;;;29.23;15.02;;;;;;;;;;1045880;28;20269;-72
2023/10/10 02:40:44;;;;;;;23.92;13.90;;;;;;;;;;1045039;28;20144;-70
2023/10/10 02:41:22;;;;;;;26.38;15.27;;;;;;;;;;1046223;28;20047;-70
2023/10/10 02:41:59;;;;;;;26.15;15.05;;;;;;;;;;1046030;28;20485;-71
2023/10/10 02:42:33;;;;;;;29.83;14.88;;;;;;;;;;1046195;28;20059;-70
2023/10/10 02:43:18;;;;;;;23.73;13.85;;;;;;;;;;1044035;28;20057;-70
2023/10/10 02:45:06;;;;;;;24.98;14.63;;;;;;;;;;1045917;28;20186;-71
2023/10/10 02:45:36;;;;;;;24.13;14.80;;;;;;;;;;1046251;28;20063;-70
2023/10/10 02:46:07;;;;;;;24.13;15.15;;;;;;;;;;1045260;28;20112;-71
2023/10/10 02:46:39;;;;;;;24.45;14.30;;;;;;;;;;1046024;28;20451;-71
2023/10/10 02:47:12;;;;;;;24.48;14.88;;;;;;;;;;1045618;28;20057;-71
2023/10/10 02:47:46;;;;;;;29.08;15.25;;;;;;;;;;1045589;28;20060;-71
2023/10/10 02:48:20;;;;;;;25.13;13.82;;;;;;;;;;1044132;28;21738;-71
2023/10/10 02:48:55;;;;;;;24.20;14.82;;;;;;;;;;1041132;28;20124;-71
2023/10/10 02:50:01;;;;;;;27.38;14.70;;;;;;;;;;1041545;28;20130;-69
2023/10/10 02:50:41;;;;;;;23.13;14.70;;;;;;;;;;1041908;28;20091;-70
2023/10/10 02:51:15;;;;;;;23.23;14.70;;;;;;;;;;1043201;28;20076;-70
2023/10/10 02:51:48;;;;;;;21.98;13.75;;;;;;;;;;1046005;28;20052;-71
2023/10/10 02:52:24;;;;;;;23.30;13.85;;;;;;;;;;1043614;28;20056;-71
2023/10/10 02:53:00;;;;;;;22.73;14.13;;;;;;;;;;1041788;28;20419;-72
2023/10/10 02:53:32;;;;;;;24.15;14.57;;;;;;;;;;1045270;28;20090;-71
2023/10/10 02:54:19;;;;;;;24.98;14.45;;;;;;;;;;1045426;28;20052;-70
2023/10/10 02:54:55;;;;;;;23.13;14.13;;;;;;;;;;1041081;28;20045;-72
2023/10/10 02:55:33;;;;;;;25.08;15.30;;;;;;;;;;1040312;28;20409;-71
2023/10/10 02:56:09;;;;;;;26.23;14.70;;;;;;;;;;1041383;28;20056;-71
2023/10/10 02:56:43;;;;;;;24.58;15.23;;;;;;;;;;1041364;28;20088;-71
2023/10/10 02:57:59;;;;;;;24.70;15.02;;;;;;;;;;1042351;28;20960;-71
2023/10/10 02:58:38;;;;;;;25.33;15.50;;;;;;;;;;1041665;28;20539;-71
2023/10/10 02:59:09;;;;;;;20.70;13.98;;;;;;;;;;1041748;28;20087;-70
2023/10/10 02:59:43;;;;;;;25.13;15.02;;;;;;;;;;1041978;28;20434;-71
2023/10/10 03:00:57;;;;;;;24.80;15.40;;;;;;;;;;1041859;28;20397;-71
2023/10/10 03:02:19;;;;;;;24.50;15.05;;;;;;;;;;1043831;28;20076;-71
2023/10/10 03:02:50;;;;;;;28.30;16.67;;;;;;;;;;1042343;28;20060;-70
2023/10/10 03:03:20;;;;;;;21.77;14.50;;;;;;;;;;1041684;28;20044;-71
2023/10/10 03:03:54;;;;;;;24.83;15.07;;;;;;;;;;1040112;28;20505;-71
2023/10/10 03:05:16;;;;;;;22.75;14.15;;;;;;;;;;1039731;28;20045;-71
2023/10/10 03:05:50;;;;;;;25.27;14.80;;;;;;;;;;1039901;28;20552;-70
2023/10/10 03:06:28;;;;;;;24.33;15.07;;;;;;;;;;1042368;28;20144;-70
2023/10/10 03:06:58;;;;;;;22.73;14.73;;;;;;;;;;1043002;28;20076;-71
2023/10/10 03:07:30;;;;;;;21.50;14.02;;;;;;;;;;1043937;28;20101;-72
2023/10/10 03:08:00;;;;;;;24.10;15.60;;;;;;;;;;1046286;28;20102;-72
2023/10/10 03:09:12;;;;;;;26.08;15.00;;;;;;;;;;1045155;28;20056;-71
2023/10/10 03:10:22;;;;;;;24.40;14.93;;;;;;;;;;1045406;28;20068;-70
2023/10/10 03:10:39;;;;;;;22.90;15.02;;;;;;;;;;1045077;28;20052;-70
2023/10/10 03:11:35;;;;;;;23.83;14.45;;;;;;;;;;1043844;28;20049;-72
2023/10/10 03:12:05;;;;;;;23.55;15.05;;;;;;;;;;1044878;28;20056;-71
2023/10/10 03:12:37;;;;;;;25.73;15.60;;;;;;;;;;1046726;28;20134;-72
2023/10/10 03:13:27;;;;;;;27.70;16.02;;;;;;;;;;1044000;28;20516;-72
2023/10/10 03:14:07;;;;;;;22.48;14.63;;;;;;;;;;1045758;28;20062;-71
2023/10/10 03:14:43;;;;;;;25.25;15.73;;;;;;;;;;1045038;28;20124;-71
2023/10/10 03:15:15;;;;;;;23.90;15.25;;;;;;;;;;1045171;28;20469;-71
2023/10/10 03:15:51;;;;;;;25.45;15.88;;;;;;;;;;1045058;28;20045;-72
2023/10/10 03:17:05;;;;;;;24.52;15.30;;;;;;;;;;1045869;28;20057;-71
2023/10/10 03:17:48;;;;;;;26.33;14.93;;;;;;;;;;1045429;28;20692;-70
2023/10/10 03:18:27;;;;;;;27.35;14.63;;;;;;;;;;1043604;28;20059;-71
2023/10/10 03:19:38;;;;;;;25.80;15.68;;;;;;;;;;1041859;28;20063;-70
2023/10/10 03:21:12;;;;;;;22.95;13.95;;;;;;;;;;1040283;28;20119;-69
2023/10/10 03:21:51;;;;;;;21.73;13.98;;;;;;;;;;1041885;28;20095;-71
2023/10/10 03:22:52;;;;;;;22.83;14.30;;;;;;;;;;1041577;28;20055;-69
2023/10/10 03:23:32;;;;;;;22.23;13.70;;;;;;;;;;1041352;28;20056;-71
2023/10/10 03:24:29;;;;;;;24.73;14.65;;;;;;;;;;1041672;28;20135;-70
2023/10/10 03:25:54;;;;;;;21.92;14.02;;;;;;;;;;1040525;28;20053;-72
2023/10/10 03:26:51;;;;;;;21.42;13.23;;;;;;;;;;1044301;28;20044;-73
2023/10/10 03:27:49;;;;;;;18.63;13.20;;;;;;;;;;1042715;28;20508;-71
2023/10/10 03:28:22;;;;;;;21.75;13.07;;;;;;;;;;1044656;28;20049;-71
2023/10/10 03:29:03;;;;;;;22.50;12.95;;;;;;;;;;1045715;28;20114;-70
2023/10/10 03:29:46;;;;;;;20.70;13.07;;;;;;;;;;1046513;28;20051;-71
2023/10/10 03:30:34;;;;;;;20.08;13.10;;;;;;;;;;1044272;28;20078;-71
2023/10/10 03:31:47;;;;;;;21.65;13.13;;;;;;;;;;1042999;28;20186;-72
2023/10/10 03:32:31;;;;;;;20.83;13.52;;;;;;;;;;1041373;28;20057;-71
2023/10/10 03:33:09;;;;;;;24.70;13.75;;;;;;;;;;1041635;28;20037;-70
2023/10/10 03:34:35;;;;;;;21.85;12.93;;;;;;;;;;1040916;28;20107;-71
2023/10/10 03:35:27;;;;;;;21.50;13.60;;;;;;;;;;1041195;28;20783;-71
2023/10/10 03:36:02;;;;;;;27.65;13.60;;;;;;;;;;1046062;28;20044;-71
2023/10/10 03:36:44;;;;;;;22.95;13.13;;;;;;;;;;1045352;28;20052;-73
2023/10/10 03:38:15;;;;;;;24.88;14.10;;;;;;;;;;1046478;28;20094;-71
2023/10/10 03:39:41;;;;;;;23.40;13.93;;;;;;;;;;1045975;28;20049;-70
2023/10/10 03:40:26;;;;;;;24.65;13.82;;;;;;;;;;1046534;28;20048;-71
2023/10/10 05:23:58;;;;;;;76.05;25.67;;;;;;;;;;1045907;28;20116;-70
2023/10/10 05:24:29;;;;;;;84.00;26.83;;;;;;;;;;1040618;28;20265;-71
2023/10/10 05:25:06;;;;;;;72.70;26.23;;;;;;;;;;1040265;28;20033;-71
2023/10/10 05:25:37;;;;;;;72.03;24.35;;;;;;;;;;1039333;28;20057;-68
2023/10/10 05:26:13;;;;;;;61.47;23.42;;;;;;;;;;1041821;28;20067;-68
2023/10/10 05:26:47;;;;;;;65.20;23.05;;;;;;;;;;1042689;28;20056;-69
2023/10/10 05:27:29;;;;;;;66.93;23.05;;;;;;;;;;1041271;28;20055;-68
2023/10/10 05:28:00;;;;;;;61.25;21.65;;;;;;;;;;1039361;28;20099;-68
2023/10/10 05:28:32;;;;;;;43.25;17.90;;;;;;;;;;1044481;28;20052;-67
2023/10/10 05:29:03;;;;;;;49.88;18.70;;;;;;;;;;1044377;28;20051;-69
2023/10/10 05:29:33;;;;;;;45.15;17.92;;;;;;;;;;1045612;28;20052;-69